sensor_id;sensor_type;location;lat;lon;timestamp;temperature;humidity
37240;DHT22;23130;48.760;9.178;2023-03-01T00:01:24;-1.70;99.90
37240;DHT22;23130;48.760;9.178;2023-03-01T00:03:50;-1.70;99.90
37240;DHT22;23130;48.760;9.178;2023-03-01T00:06:16;-1.80;99.90
37240;DHT22;23130;48.760;9.178;2023-03-01T00:08:42;-1.70;99.90
37240;DHT22;23130;48.760;9.178;2023-03-01T00:13:43;-1.80;99.90
37240;DHT22;23130;48.760;9.178;2023-03-01T00:16:12;-1.80;99.90
37240;DHT22;23130;48.760;9.178;2023-03-01T00:18:38;-1.80;99.90
37240;DHT22;23130;48.760;9.178;2023-03-01T00:21:04;-1.80;99.90
37240;DHT22;23130;48.760;9.178;2023-03-01T00:23:31;-1.70;99.90
37240;DHT22;23130;48.760;9.178;2023-03-01T00:25:56;-1.70;99.90
37240;DHT22;23130;48.760;9.178;2023-03-01T00:28:22;-1.70;99.90
37240;DHT22;23130;48.760;9.178;2023-03-01T00:30:47;-1.70;99.90
37240;DHT22;23130;48.760;9.178;2023-03-01T00:33:13;-1.70;99.90
37240;DHT22;23130;48.760;9.178;2023-03-01T00:35:39;-1.70;99.90
37240;DHT22;23130;48.760;9.178;2023-03-01T00:38:05;-1.80;99.90
37240;DHT22;23130;48.760;9.178;2023-03-01T00:40:33;-2.00;99.90
37240;DHT22;23130;48.760;9.178;2023-03-01T00:42:59;-2.20;99.90
37240;DHT22;23130;48.760;9.178;2023-03-01T00:45:25;-2.30;99.90
37240;DHT22;23130;48.760;9.178;2023-03-01T00:47:51;-2.40;99.90
37240;DHT22;23130;48.760;9.178;2023-03-01T00:50:17;-2.50;99.90
37240;DHT22;23130;48.760;9.178;2023-03-01T00:52:43;-2.70;99.90
37240;DHT22;23130;48.760;9.178;2023-03-01T00:55:09;-2.80;99.90
37240;DHT22;23130;48.760;9.178;2023-03-01T00:57:35;-2.90;99.90
37240;DHT22;23130;48.760;9.178;2023-03-01T01:00:00;-3.00;99.90
37240;DHT22;23130;48.760;9.178;2023-03-01T01:02:26;-3.00;99.90
37240;DHT22;23130;48.760;9.178;2023-03-01T01:04:52;-2.90;99.90
37240;DHT22;23130;48.760;9.178;2023-03-01T01:07:18;-2.90;99.90
37240;DHT22;23130;48.760;9.178;2023-03-01T01:09:45;-2.80;99.90
37240;DHT22;23130;48.760;9.178;2023-03-01T01:12:11;-2.70;99.90
37240;DHT22;23130;48.760;9.178;2023-03-01T01:14:37;-2.60;99.90
37240;DHT22;23130;48.760;9.178;2023-03-01T01:17:02;-2.50;99.90
37240;DHT22;23130;48.760;9.178;2023-03-01T01:19:28;-2.40;99.90
37240;DHT22;23130;48.760;9.178;2023-03-01T01:21:54;-2.30;99.90
37240;DHT22;23130;48.760;9.178;2023-03-01T01:24:19;-2.10;99.90
37240;DHT22;23130;48.760;9.178;2023-03-01T01:26:45;-2.10;99.90
37240;DHT22;23130;48.760;9.178;2023-03-01T01:29:11;-2.10;99.90
37240;DHT22;23130;48.760;9.178;2023-03-01T01:31:40;-2.10;99.90
37240;DHT22;23130;48.760;9.178;2023-03-01T01:34:07;-2.10;99.90
37240;DHT22;23130;48.760;9.178;2023-03-01T01:36:34;-2.10;99.90
37240;DHT22;23130;48.760;9.178;2023-03-01T01:39:00;-2.10;99.90
37240;DHT22;23130;48.760;9.178;2023-03-01T01:41:26;-2.20;99.90
37240;DHT22;23130;48.760;9.178;2023-03-01T01:44:21;-2.10;99.90
37240;DHT22;23130;48.760;9.178;2023-03-01T01:46:57;-2.10;99.90
37240;DHT22;23130;48.760;9.178;2023-03-01T01:49:46;-2.20;99.90
37240;DHT22;23130;48.760;9.178;2023-03-01T01:55:05;-2.10;99.90
37240;DHT22;23130;48.760;9.178;2023-03-01T01:57:37;-2.10;99.90
37240;DHT22;23130;48.760;9.178;2023-03-01T02:00:13;-2.10;99.90
37240;DHT22;23130;48.760;9.178;2023-03-01T02:02:40;-1.90;99.90
37240;DHT22;23130;48.760;9.178;2023-03-01T02:05:38;-1.90;99.90
37240;DHT22;23130;48.760;9.178;2023-03-01T02:08:06;-1.80;99.90
37240;DHT22;23130;48.760;9.178;2023-03-01T02:10:33;-1.70;99.90
37240;DHT22;23130;48.760;9.178;2023-03-01T02:13:00;-1.60;99.90
37240;DHT22;23130;48.760;9.178;2023-03-01T02:15:26;-1.50;99.90
37240;DHT22;23130;48.760;9.178;2023-03-01T02:17:53;-1.50;99.90
37240;DHT22;23130;48.760;9.178;2023-03-01T02:23:39;-1.40;99.90
37240;DHT22;23130;48.760;9.178;2023-03-01T02:26:33;-1.40;99.90
37240;DHT22;23130;48.760;9.178;2023-03-01T02:29:02;-1.40;99.90
37240;DHT22;23130;48.760;9.178;2023-03-01T02:31:27;-1.40;99.90
37240;DHT22;23130;48.760;9.178;2023-03-01T02:34:11;-1.30;99.90
37240;DHT22;23130;48.760;9.178;2023-03-01T02:36:40;-1.30;99.90
37240;DHT22;23130;48.760;9.178;2023-03-01T02:39:10;-1.30;99.90
37240;DHT22;23130;48.760;9.178;2023-03-01T02:41:42;-1.20;99.90
37240;DHT22;23130;48.760;9.178;2023-03-01T02:44:08;-1.20;99.90
37240;DHT22;23130;48.760;9.178;2023-03-01T02:46:41;-1.20;99.90
37240;DHT22;23130;48.760;9.178;2023-03-01T02:49:24;-1.20;99.90
37240;DHT22;23130;48.760;9.178;2023-03-01T02:54:51;-1.20;99.90
37240;DHT22;23130;48.760;9.178;2023-03-01T02:57:19;-1.20;99.90
37240;DHT22;23130;48.760;9.178;2023-03-01T02:59:47;-1.20;99.90
37240;DHT22;23130;48.760;9.178;2023-03-01T03:02:25;-1.20;99.90
37240;DHT22;23130;48.760;9.178;2023-03-01T03:05:05;-1.20;99.90
37240;DHT22;23130;48.760;9.178;2023-03-01T03:07:34;-1.20;99.90
37240;DHT22;23130;48.760;9.178;2023-03-01T03:10:02;-1.20;99.90
37240;DHT22;23130;48.760;9.178;2023-03-01T03:12:28;-1.30;99.90
37240;DHT22;23130;48.760;9.178;2023-03-01T03:14:54;-1.20;99.90
37240;DHT22;23130;48.760;9.178;2023-03-01T03:17:19;-1.20;99.90
37240;DHT22;23130;48.760;9.178;2023-03-01T03:19:45;-1.20;99.90
37240;DHT22;23130;48.760;9.178;2023-03-01T03:22:11;-1.20;99.90
37240;DHT22;23130;48.760;9.178;2023-03-01T03:24:37;-1.20;99.90
37240;DHT22;23130;48.760;9.178;2023-03-01T03:27:04;-1.20;99.90
37240;DHT22;23130;48.760;9.178;2023-03-01T03:29:30;-1.20;99.90
37240;DHT22;23130;48.760;9.178;2023-03-01T03:31:55;-1.10;99.90
37240;DHT22;23130;48.760;9.178;2023-03-01T03:34:21;-1.20;99.90
37240;DHT22;23130;48.760;9.178;2023-03-01T03:36:47;-1.20;99.90
37240;DHT22;23130;48.760;9.178;2023-03-01T03:39:12;-1.20;99.90
37240;DHT22;23130;48.760;9.178;2023-03-01T03:41:38;-1.20;99.90
37240;DHT22;23130;48.760;9.178;2023-03-01T03:44:03;-1.20;99.90
37240;DHT22;23130;48.760;9.178;2023-03-01T03:46:29;-1.20;99.90
37240;DHT22;23130;48.760;9.178;2023-03-01T03:48:55;-1.10;99.90
37240;DHT22;23130;48.760;9.178;2023-03-01T03:51:20;-1.10;99.90
37240;DHT22;23130;48.760;9.178;2023-03-01T03:53:48;-1.10;99.90
37240;DHT22;23130;48.760;9.178;2023-03-01T03:56:14;-1.10;99.90
37240;DHT22;23130;48.760;9.178;2023-03-01T03:58:39;-1.00;99.90
37240;DHT22;23130;48.760;9.178;2023-03-01T04:01:05;-1.10;99.90
37240;DHT22;23130;48.760;9.178;2023-03-01T04:03:32;-1.00;99.90
37240;DHT22;23130;48.760;9.178;2023-03-01T04:06:00;-1.00;99.90
37240;DHT22;23130;48.760;9.178;2023-03-01T04:08:27;-1.00;99.90
37240;DHT22;23130;48.760;9.178;2023-03-01T04:10:57;-0.90;99.90
37240;DHT22;23130;48.760;9.178;2023-03-01T04:13:23;-0.90;99.90
37240;DHT22;23130;48.760;9.178;2023-03-01T04:15:51;-0.90;99.90
37240;DHT22;23130;48.760;9.178;2023-03-01T04:18:18;-0.90;99.90
37240;DHT22;23130;48.760;9.178;2023-03-01T04:20:45;-0.90;99.90
37240;DHT22;23130;48.760;9.178;2023-03-01T04:23:18;-0.90;99.90
37240;DHT22;23130;48.760;9.178;2023-03-01T04:25:53;-0.90;99.90
37240;DHT22;23130;48.760;9.178;2023-03-01T04:28:25;-0.90;99.90
37240;DHT22;23130;48.760;9.178;2023-03-01T04:30:52;-0.90;99.90
37240;DHT22;23130;48.760;9.178;2023-03-01T04:33:18;-0.90;99.90
37240;DHT22;23130;48.760;9.178;2023-03-01T04:35:44;-0.80;99.90
37240;DHT22;23130;48.760;9.178;2023-03-01T04:38:10;-0.80;99.90
37240;DHT22;23130;48.760;9.178;2023-03-01T04:40:36;-0.80;99.90
37240;DHT22;23130;48.760;9.178;2023-03-01T04:43:03;-0.80;99.90
37240;DHT22;23130;48.760;9.178;2023-03-01T04:45:28;-0.80;99.90
37240;DHT22;23130;48.760;9.178;2023-03-01T04:47:54;-0.80;99.90
37240;DHT22;23130;48.760;9.178;2023-03-01T04:50:20;-0.80;99.90
37240;DHT22;23130;48.760;9.178;2023-03-01T04:52:47;-0.80;99.90
37240;DHT22;23130;48.760;9.178;2023-03-01T04:55:13;-0.80;99.90
37240;DHT22;23130;48.760;9.178;2023-03-01T04:57:39;-0.80;99.90
37240;DHT22;23130;48.760;9.178;2023-03-01T05:00:08;-0.80;99.90
37240;DHT22;23130;48.760;9.178;2023-03-01T05:02:56;-0.80;99.90
37240;DHT22;23130;48.760;9.178;2023-03-01T05:05:31;-0.80;99.90
37240;DHT22;23130;48.760;9.178;2023-03-01T05:08:00;-0.80;99.90
37240;DHT22;23130;48.760;9.178;2023-03-01T05:10:28;-0.70;99.90
37240;DHT22;23130;48.760;9.178;2023-03-01T05:12:55;-0.70;99.90
37240;DHT22;23130;48.760;9.178;2023-03-01T05:15:25;-0.70;99.90
37240;DHT22;23130;48.760;9.178;2023-03-01T05:17:52;-0.70;99.90
37240;DHT22;23130;48.760;9.178;2023-03-01T05:20:18;-0.70;99.90
37240;DHT22;23130;48.760;9.178;2023-03-01T05:22:48;-0.60;99.90
37240;DHT22;23130;48.760;9.178;2023-03-01T05:25:14;-0.60;99.90
37240;DHT22;23130;48.760;9.178;2023-03-01T05:27:40;-0.60;99.90
37240;DHT22;23130;48.760;9.178;2023-03-01T05:30:06;-0.60;99.90
37240;DHT22;23130;48.760;9.178;2023-03-01T05:32:46;-0.60;99.90
37240;DHT22;23130;48.760;9.178;2023-03-01T05:35:13;-0.50;99.90
37240;DHT22;23130;48.760;9.178;2023-03-01T05:37:41;-0.50;99.90
37240;DHT22;23130;48.760;9.178;2023-03-01T05:40:08;-0.50;99.90
37240;DHT22;23130;48.760;9.178;2023-03-01T05:42:41;-0.50;99.90
37240;DHT22;23130;48.760;9.178;2023-03-01T05:45:08;-0.50;99.90
37240;DHT22;23130;48.760;9.178;2023-03-01T05:47:35;-0.50;99.90
37240;DHT22;23130;48.760;9.178;2023-03-01T05:50:01;-0.40;99.90
37240;DHT22;23130;48.760;9.178;2023-03-01T05:52:26;-0.40;99.90
37240;DHT22;23130;48.760;9.178;2023-03-01T05:54:52;-0.40;99.90
37240;DHT22;23130;48.760;9.178;2023-03-01T05:57:18;-0.40;99.90
37240;DHT22;23130;48.760;9.178;2023-03-01T05:59:43;-0.40;99.90
37240;DHT22;23130;48.760;9.178;2023-03-01T06:02:09;-0.30;99.90
37240;DHT22;23130;48.760;9.178;2023-03-01T06:04:34;-0.30;99.90
37240;DHT22;23130;48.760;9.178;2023-03-01T06:07:00;-0.30;99.90
37240;DHT22;23130;48.760;9.178;2023-03-01T06:09:25;-0.30;99.90
37240;DHT22;23130;48.760;9.178;2023-03-01T06:11:51;-0.30;99.90
37240;DHT22;23130;48.760;9.178;2023-03-01T06:14:17;-0.30;99.90
37240;DHT22;23130;48.760;9.178;2023-03-01T06:16:42;-0.20;99.90
37240;DHT22;23130;48.760;9.178;2023-03-01T06:19:08;-0.20;99.90
37240;DHT22;23130;48.760;9.178;2023-03-01T06:21:33;-0.20;99.90
37240;DHT22;23130;48.760;9.178;2023-03-01T06:23:59;-0.20;99.90
37240;DHT22;23130;48.760;9.178;2023-03-01T06:26:26;-0.20;99.90
37240;DHT22;23130;48.760;9.178;2023-03-01T06:28:51;-0.20;99.90
37240;DHT22;23130;48.760;9.178;2023-03-01T06:31:17;-0.20;99.90
37240;DHT22;23130;48.760;9.178;2023-03-01T06:33:43;-0.10;99.90
37240;DHT22;23130;48.760;9.178;2023-03-01T06:36:10;-0.10;99.90
37240;DHT22;23130;48.760;9.178;2023-03-01T06:38:35;-0.10;99.90
37240;DHT22;23130;48.760;9.178;2023-03-01T06:41:01;0.00;99.90
37240;DHT22;23130;48.760;9.178;2023-03-01T06:43:27;0.00;99.90
37240;DHT22;23130;48.760;9.178;2023-03-01T06:45:52;0.00;99.90
37240;DHT22;23130;48.760;9.178;2023-03-01T06:48:18;0.00;99.90
37240;DHT22;23130;48.760;9.178;2023-03-01T06:50:43;0.00;99.90
37240;DHT22;23130;48.760;9.178;2023-03-01T06:53:09;0.10;99.90
37240;DHT22;23130;48.760;9.178;2023-03-01T06:55:35;0.20;99.90
37240;DHT22;23130;48.760;9.178;2023-03-01T06:58:02;0.20;99.90
37240;DHT22;23130;48.760;9.178;2023-03-01T07:00:28;0.30;99.90
37240;DHT22;23130;48.760;9.178;2023-03-01T07:02:54;0.40;99.90
37240;DHT22;23130;48.760;9.178;2023-03-01T07:05:19;0.50;99.90
37240;DHT22;23130;48.760;9.178;2023-03-01T07:07:45;0.60;99.90
37240;DHT22;23130;48.760;9.178;2023-03-01T07:10:11;0.50;99.90
37240;DHT22;23130;48.760;9.178;2023-03-01T07:12:37;0.60;99.90
37240;DHT22;23130;48.760;9.178;2023-03-01T07:15:03;0.50;99.90
37240;DHT22;23130;48.760;9.178;2023-03-01T07:17:29;0.50;99.90
37240;DHT22;23130;48.760;9.178;2023-03-01T07:19:54;0.30;99.90
37240;DHT22;23130;48.760;9.178;2023-03-01T07:22:20;0.20;99.90
37240;DHT22;23130;48.760;9.178;2023-03-01T07:24:46;0.10;99.90
37240;DHT22;23130;48.760;9.178;2023-03-01T07:27:14;0.00;99.90
37240;DHT22;23130;48.760;9.178;2023-03-01T07:29:40;-0.10;99.90
37240;DHT22;23130;48.760;9.178;2023-03-01T07:32:10;-0.10;99.90
37240;DHT22;23130;48.760;9.178;2023-03-01T07:34:36;-0.10;99.90
37240;DHT22;23130;48.760;9.178;2023-03-01T07:37:01;-0.10;99.90
37240;DHT22;23130;48.760;9.178;2023-03-01T07:39:27;-0.20;99.90
37240;DHT22;23130;48.760;9.178;2023-03-01T07:41:54;-0.20;99.90
37240;DHT22;23130;48.760;9.178;2023-03-01T07:44:19;-0.20;99.90
37240;DHT22;23130;48.760;9.178;2023-03-01T07:46:45;-0.10;99.90
37240;DHT22;23130;48.760;9.178;2023-03-01T07:49:11;-0.10;99.90
37240;DHT22;23130;48.760;9.178;2023-03-01T07:51:36;0.00;99.90
37240;DHT22;23130;48.760;9.178;2023-03-01T07:54:02;0.00;99.90
37240;DHT22;23130;48.760;9.178;2023-03-01T07:56:28;0.10;99.90
37240;DHT22;23130;48.760;9.178;2023-03-01T07:58:54;0.10;99.90
37240;DHT22;23130;48.760;9.178;2023-03-01T08:01:20;0.20;99.90
37240;DHT22;23130;48.760;9.178;2023-03-01T08:03:46;0.20;99.90
37240;DHT22;23130;48.760;9.178;2023-03-01T08:06:13;0.30;99.90
37240;DHT22;23130;48.760;9.178;2023-03-01T08:08:40;0.30;99.90
37240;DHT22;23130;48.760;9.178;2023-03-01T08:11:07;0.30;99.90
37240;DHT22;23130;48.760;9.178;2023-03-01T08:13:33;0.40;99.90
37240;DHT22;23130;48.760;9.178;2023-03-01T08:16:02;0.40;99.90
37240;DHT22;23130;48.760;9.178;2023-03-01T08:18:29;0.50;99.90
37240;DHT22;23130;48.760;9.178;2023-03-01T08:21:05;0.60;99.90
37240;DHT22;23130;48.760;9.178;2023-03-01T08:23:31;0.60;99.90
37240;DHT22;23130;48.760;9.178;2023-03-01T08:26:16;0.60;99.90
37240;DHT22;23130;48.760;9.178;2023-03-01T08:28:43;0.70;99.90
37240;DHT22;23130;48.760;9.178;2023-03-01T08:33:52;0.80;99.90
37240;DHT22;23130;48.760;9.178;2023-03-01T08:36:23;0.90;99.90
37240;DHT22;23130;48.760;9.178;2023-03-01T08:38:49;1.00;99.90
37240;DHT22;23130;48.760;9.178;2023-03-01T08:41:15;1.00;99.90
37240;DHT22;23130;48.760;9.178;2023-03-01T08:43:41;1.00;99.90
37240;DHT22;23130;48.760;9.178;2023-03-01T08:46:06;1.00;99.90
37240;DHT22;23130;48.760;9.178;2023-03-01T08:48:32;1.00;99.90
37240;DHT22;23130;48.760;9.178;2023-03-01T08:51:14;1.10;99.90
37240;DHT22;23130;48.760;9.178;2023-03-01T08:53:40;1.20;99.90
37240;DHT22;23130;48.760;9.178;2023-03-01T08:56:06;1.30;99.90
37240;DHT22;23130;48.760;9.178;2023-03-01T08:58:32;1.30;99.90
37240;DHT22;23130;48.760;9.178;2023-03-01T09:00:58;1.30;99.90
37240;DHT22;23130;48.760;9.178;2023-03-01T09:03:24;1.30;99.90
37240;DHT22;23130;48.760;9.178;2023-03-01T09:05:51;1.30;99.90
37240;DHT22;23130;48.760;9.178;2023-03-01T09:08:17;1.30;99.90
37240;DHT22;23130;48.760;9.178;2023-03-01T09:10:43;1.40;99.90
37240;DHT22;23130;48.760;9.178;2023-03-01T09:13:09;1.50;99.90
37240;DHT22;23130;48.760;9.178;2023-03-01T09:15:37;1.50;99.90
37240;DHT22;23130;48.760;9.178;2023-03-01T09:18:03;1.60;99.90
37240;DHT22;23130;48.760;9.178;2023-03-01T09:20:28;1.60;99.90
37240;DHT22;23130;48.760;9.178;2023-03-01T09:22:56;1.70;99.90
37240;DHT22;23130;48.760;9.178;2023-03-01T09:25:21;1.70;99.90
37240;DHT22;23130;48.760;9.178;2023-03-01T09:27:50;1.80;99.90
37240;DHT22;23130;48.760;9.178;2023-03-01T09:30:16;1.90;99.90
37240;DHT22;23130;48.760;9.178;2023-03-01T09:32:42;1.90;99.90
37240;DHT22;23130;48.760;9.178;2023-03-01T09:35:08;2.00;99.90
37240;DHT22;23130;48.760;9.178;2023-03-01T09:37:35;2.10;99.90
37240;DHT22;23130;48.760;9.178;2023-03-01T09:40:02;2.00;99.90
37240;DHT22;23130;48.760;9.178;2023-03-01T09:42:30;2.00;99.90
37240;DHT22;23130;48.760;9.178;2023-03-01T09:45:11;2.10;99.90
37240;DHT22;23130;48.760;9.178;2023-03-01T09:47:40;2.10;99.90
37240;DHT22;23130;48.760;9.178;2023-03-01T09:50:12;2.20;99.90
37240;DHT22;23130;48.760;9.178;2023-03-01T09:53:06;2.40;99.90
37240;DHT22;23130;48.760;9.178;2023-03-01T09:55:41;2.50;99.90
37240;DHT22;23130;48.760;9.178;2023-03-01T10:00:56;2.80;99.90
37240;DHT22;23130;48.760;9.178;2023-03-01T10:04:04;2.80;99.90
37240;DHT22;23130;48.760;9.178;2023-03-01T10:06:34;2.80;99.90
37240;DHT22;23130;48.760;9.178;2023-03-01T10:09:10;2.90;99.90
37240;DHT22;23130;48.760;9.178;2023-03-01T10:16:53;3.00;99.90
37240;DHT22;23130;48.760;9.178;2023-03-01T10:19:29;3.20;99.90
37240;DHT22;23130;48.760;9.178;2023-03-01T10:22:00;3.20;99.90
37240;DHT22;23130;48.760;9.178;2023-03-01T10:24:31;3.30;99.90
37240;DHT22;23130;48.760;9.178;2023-03-01T10:27:04;3.30;99.90
37240;DHT22;23130;48.760;9.178;2023-03-01T10:32:26;3.40;99.90
37240;DHT22;23130;48.760;9.178;2023-03-01T10:34:51;3.50;99.90
37240;DHT22;23130;48.760;9.178;2023-03-01T10:37:19;3.60;99.90
37240;DHT22;23130;48.760;9.178;2023-03-01T10:40:07;3.70;99.90
37240;DHT22;23130;48.760;9.178;2023-03-01T10:42:37;3.70;99.90
37240;DHT22;23130;48.760;9.178;2023-03-01T10:48:12;3.80;99.90
37240;DHT22;23130;48.760;9.178;2023-03-01T10:50:41;4.00;99.90
37240;DHT22;23130;48.760;9.178;2023-03-01T10:56:09;4.20;99.90
37240;DHT22;23130;48.760;9.178;2023-03-01T10:58:37;4.30;99.90
37240;DHT22;23130;48.760;9.178;2023-03-01T11:01:05;4.30;99.90
37240;DHT22;23130;48.760;9.178;2023-03-01T11:03:38;4.30;99.90
37240;DHT22;23130;48.760;9.178;2023-03-01T11:08:46;4.40;99.90
37240;DHT22;23130;48.760;9.178;2023-03-01T11:13:55;4.60;99.90
37240;DHT22;23130;48.760;9.178;2023-03-01T11:16:36;4.60;99.90
37240;DHT22;23130;48.760;9.178;2023-03-01T11:24:14;4.60;99.90
37240;DHT22;23130;48.760;9.178;2023-03-01T11:26:43;4.60;99.90
37240;DHT22;23130;48.760;9.178;2023-03-01T11:29:30;4.80;99.90
37240;DHT22;23130;48.760;9.178;2023-03-01T11:32:01;4.90;99.90
37240;DHT22;23130;48.760;9.178;2023-03-01T11:34:44;5.00;99.90
37240;DHT22;23130;48.760;9.178;2023-03-01T11:40:05;5.10;99.90
37240;DHT22;23130;48.760;9.178;2023-03-01T11:42:48;5.20;99.90
37240;DHT22;23130;48.760;9.178;2023-03-01T11:45:15;5.30;99.90
37240;DHT22;23130;48.760;9.178;2023-03-01T11:47:55;5.30;99.90
37240;DHT22;23130;48.760;9.178;2023-03-01T11:50:41;5.40;99.90
37240;DHT22;23130;48.760;9.178;2023-03-01T12:13:55;5.90;99.90
37240;DHT22;23130;48.760;9.178;2023-03-01T12:16:33;5.90;99.90
37240;DHT22;23130;48.760;9.178;2023-03-01T12:30:45;6.20;99.90
37240;DHT22;23130;48.760;9.178;2023-03-01T12:33:22;6.30;99.90
37240;DHT22;23130;48.760;9.178;2023-03-01T12:38:38;6.30;99.90
37240;DHT22;23130;48.760;9.178;2023-03-01T12:41:11;6.30;99.90
37240;DHT22;23130;48.760;9.178;2023-03-01T12:43:52;6.40;99.90
37240;DHT22;23130;48.760;9.178;2023-03-01T12:51:38;6.40;99.90
37240;DHT22;23130;48.760;9.178;2023-03-01T12:54:27;6.50;99.90
37240;DHT22;23130;48.760;9.178;2023-03-01T12:56:54;6.60;99.90
37240;DHT22;23130;48.760;9.178;2023-03-01T13:03:30;6.70;99.90
37240;DHT22;23130;48.760;9.178;2023-03-01T13:08:13;6.60;99.90
37240;DHT22;23130;48.760;9.178;2023-03-01T13:10:50;6.60;99.90
37240;DHT22;23130;48.760;9.178;2023-03-01T13:13:23;6.90;99.90
37240;DHT22;23130;48.760;9.178;2023-03-01T13:15:49;6.80;99.90
37240;DHT22;23130;48.760;9.178;2023-03-01T13:31:01;6.90;99.90
37240;DHT22;23130;48.760;9.178;2023-03-01T13:35:56;7.00;99.90
37240;DHT22;23130;48.760;9.178;2023-03-01T13:46:59;7.10;99.90
37240;DHT22;23130;48.760;9.178;2023-03-01T13:49:49;7.10;99.90
37240;DHT22;23130;48.760;9.178;2023-03-01T13:52:35;7.10;99.90
37240;DHT22;23130;48.760;9.178;2023-03-01T13:55:05;7.10;99.90
37240;DHT22;23130;48.760;9.178;2023-03-01T13:57:37;7.10;99.90
37240;DHT22;23130;48.760;9.178;2023-03-01T14:00:05;7.20;99.90
37240;DHT22;23130;48.760;9.178;2023-03-01T14:02:31;7.20;99.90
37240;DHT22;23130;48.760;9.178;2023-03-01T14:05:00;7.20;99.90
37240;DHT22;23130;48.760;9.178;2023-03-01T14:07:27;7.20;99.90
37240;DHT22;23130;48.760;9.178;2023-03-01T14:10:02;7.30;99.90
37240;DHT22;23130;48.760;9.178;2023-03-01T14:12:49;7.20;99.90
37240;DHT22;23130;48.760;9.178;2023-03-01T14:15:25;7.10;99.90
37240;DHT22;23130;48.760;9.178;2023-03-01T14:20:37;6.90;99.90
37240;DHT22;23130;48.760;9.178;2023-03-01T14:23:14;6.80;99.90
37240;DHT22;23130;48.760;9.178;2023-03-01T14:25:48;6.80;99.90
37240;DHT22;23130;48.760;9.178;2023-03-01T14:28:26;6.80;99.90
37240;DHT22;23130;48.760;9.178;2023-03-01T14:30:54;6.80;99.90
37240;DHT22;23130;48.760;9.178;2023-03-01T14:33:33;6.70;99.90
37240;DHT22;23130;48.760;9.178;2023-03-01T14:36:02;6.70;99.90
37240;DHT22;23130;48.760;9.178;2023-03-01T14:38:37;6.80;99.90
37240;DHT22;23130;48.760;9.178;2023-03-01T14:41:36;6.80;99.90
37240;DHT22;23130;48.760;9.178;2023-03-01T14:44:05;6.80;99.90
37240;DHT22;23130;48.760;9.178;2023-03-01T14:46:37;6.70;99.90
37240;DHT22;23130;48.760;9.178;2023-03-01T14:51:38;6.70;99.90
37240;DHT22;23130;48.760;9.178;2023-03-01T14:54:23;6.70;99.90
37240;DHT22;23130;48.760;9.178;2023-03-01T14:56:51;6.80;99.90
37240;DHT22;23130;48.760;9.178;2023-03-01T14:59:22;6.80;99.90
37240;DHT22;23130;48.760;9.178;2023-03-01T15:01:49;6.80;99.90
37240;DHT22;23130;48.760;9.178;2023-03-01T15:04:15;6.90;99.90
37240;DHT22;23130;48.760;9.178;2023-03-01T15:06:41;6.90;99.90
37240;DHT22;23130;48.760;9.178;2023-03-01T15:09:11;7.00;99.90
37240;DHT22;23130;48.760;9.178;2023-03-01T15:11:37;7.00;99.90
37240;DHT22;23130;48.760;9.178;2023-03-01T15:14:26;6.90;99.90
37240;DHT22;23130;48.760;9.178;2023-03-01T15:16:53;6.80;99.90
37240;DHT22;23130;48.760;9.178;2023-03-01T15:19:19;6.80;99.90
37240;DHT22;23130;48.760;9.178;2023-03-01T15:21:49;6.80;99.90
37240;DHT22;23130;48.760;9.178;2023-03-01T15:24:23;6.80;99.90
37240;DHT22;23130;48.760;9.178;2023-03-01T15:26:57;6.80;99.90
37240;DHT22;23130;48.760;9.178;2023-03-01T15:29:29;6.80;99.90
37240;DHT22;23130;48.760;9.178;2023-03-01T15:34:34;6.70;99.90
37240;DHT22;23130;48.760;9.178;2023-03-01T15:37:02;6.70;99.90
37240;DHT22;23130;48.760;9.178;2023-03-01T15:44:35;6.60;99.90
37240;DHT22;23130;48.760;9.178;2023-03-01T15:47:02;6.60;99.90
37240;DHT22;23130;48.760;9.178;2023-03-01T15:49:41;6.60;99.90
37240;DHT22;23130;48.760;9.178;2023-03-01T15:52:35;6.60;99.90
37240;DHT22;23130;48.760;9.178;2023-03-01T15:55:14;6.60;99.90
37240;DHT22;23130;48.760;9.178;2023-03-01T15:57:39;6.60;99.90
37240;DHT22;23130;48.760;9.178;2023-03-01T16:00:08;6.50;99.90
37240;DHT22;23130;48.760;9.178;2023-03-01T16:02:37;6.50;99.90
37240;DHT22;23130;48.760;9.178;2023-03-01T16:05:03;6.50;99.90
37240;DHT22;23130;48.760;9.178;2023-03-01T16:07:28;6.50;99.90
37240;DHT22;23130;48.760;9.178;2023-03-01T16:09:56;6.40;99.90
37240;DHT22;23130;48.760;9.178;2023-03-01T16:12:22;6.40;99.90
37240;DHT22;23130;48.760;9.178;2023-03-01T16:14:49;6.40;99.90
37240;DHT22;23130;48.760;9.178;2023-03-01T16:17:15;6.30;99.90
37240;DHT22;23130;48.760;9.178;2023-03-01T16:19:41;6.30;99.90
37240;DHT22;23130;48.760;9.178;2023-03-01T16:22:09;6.20;99.90
37240;DHT22;23130;48.760;9.178;2023-03-01T16:24:35;6.20;99.90
37240;DHT22;23130;48.760;9.178;2023-03-01T16:27:02;6.20;99.90
37240;DHT22;23130;48.760;9.178;2023-03-01T16:29:27;6.20;99.90
37240;DHT22;23130;48.760;9.178;2023-03-01T16:31:54;6.10;99.90
37240;DHT22;23130;48.760;9.178;2023-03-01T16:34:20;6.10;99.90
37240;DHT22;23130;48.760;9.178;2023-03-01T16:36:47;6.10;99.90
37240;DHT22;23130;48.760;9.178;2023-03-01T16:39:12;6.10;99.90
37240;DHT22;23130;48.760;9.178;2023-03-01T16:41:38;6.00;99.90
37240;DHT22;23130;48.760;9.178;2023-03-01T16:44:03;6.00;99.90
37240;DHT22;23130;48.760;9.178;2023-03-01T16:46:29;5.90;99.90
37240;DHT22;23130;48.760;9.178;2023-03-01T16:48:55;5.90;99.90
37240;DHT22;23130;48.760;9.178;2023-03-01T16:51:22;5.80;99.90
37240;DHT22;23130;48.760;9.178;2023-03-01T16:53:49;5.70;99.90
37240;DHT22;23130;48.760;9.178;2023-03-01T16:56:15;5.60;99.90
37240;DHT22;23130;48.760;9.178;2023-03-01T16:58:42;5.60;99.90
37240;DHT22;23130;48.760;9.178;2023-03-01T17:01:14;5.60;99.90
37240;DHT22;23130;48.760;9.178;2023-03-01T17:03:41;5.50;99.90
37240;DHT22;23130;48.760;9.178;2023-03-01T17:06:10;5.40;99.90
37240;DHT22;23130;48.760;9.178;2023-03-01T17:08:37;5.30;99.90
37240;DHT22;23130;48.760;9.178;2023-03-01T17:11:15;5.20;99.90
37240;DHT22;23130;48.760;9.178;2023-03-01T17:13:41;5.10;99.90
37240;DHT22;23130;48.760;9.178;2023-03-01T17:16:09;5.10;99.90
37240;DHT22;23130;48.760;9.178;2023-03-01T17:18:35;5.10;99.90
37240;DHT22;23130;48.760;9.178;2023-03-01T17:21:01;4.90;99.90
37240;DHT22;23130;48.760;9.178;2023-03-01T17:23:28;4.70;99.90
37240;DHT22;23130;48.760;9.178;2023-03-01T17:25:55;4.60;99.90
37240;DHT22;23130;48.760;9.178;2023-03-01T17:28:22;4.50;99.90
37240;DHT22;23130;48.760;9.178;2023-03-01T17:30:49;4.50;99.90
37240;DHT22;23130;48.760;9.178;2023-03-01T17:33:14;4.40;99.90
37240;DHT22;23130;48.760;9.178;2023-03-01T17:35:40;4.30;99.90
37240;DHT22;23130;48.760;9.178;2023-03-01T17:38:06;4.20;99.90
37240;DHT22;23130;48.760;9.178;2023-03-01T17:40:32;4.10;99.90
37240;DHT22;23130;48.760;9.178;2023-03-01T17:43:00;4.10;99.90
37240;DHT22;23130;48.760;9.178;2023-03-01T17:45:26;4.10;99.90
37240;DHT22;23130;48.760;9.178;2023-03-01T17:47:51;4.10;99.90
37240;DHT22;23130;48.760;9.178;2023-03-01T17:50:17;4.20;99.90
37240;DHT22;23130;48.760;9.178;2023-03-01T17:52:42;4.10;99.90
37240;DHT22;23130;48.760;9.178;2023-03-01T17:55:08;4.10;99.90
37240;DHT22;23130;48.760;9.178;2023-03-01T17:57:36;4.10;99.90
37240;DHT22;23130;48.760;9.178;2023-03-01T18:00:03;4.10;99.90